Time;durP1;ratioP1;P1;durP2;ratioP2;P2;SDS_P1;SDS_P2;PMS_P1;PMS_P2;Temp;Humidity;BMP_temperature;BMP_pressure;BME280_temperature;BME280_humidity;BME280_pressure;Samples;Min_cycle;Max_cycle;Signal;HPM_P1;HPM_P2
2023/06/01 00:00:19;;;;;;;4.97;3.50;;;14.90;95.90;;;;;;5037865;28;20490;-80
2023/06/01 00:02:46;;;;;;;5.43;3.90;;;14.90;96.50;;;;;;5034227;28;20938;-80
2023/06/01 00:05:13;;;;;;;5.60;3.77;;;14.80;96.40;;;;;;5038249;28;20492;-80
2023/06/01 00:07:41;;;;;;;5.57;4.30;;;14.70;96.40;;;;;;5041517;28;20485;-80
2023/06/01 00:10:09;;;;;;;8.53;4.80;;;14.70;96.50;;;;;;5037902;28;20849;-80
2023/06/01 00:12:35;;;;;;;5.00;3.60;;;14.60;96.70;;;;;;5040541;28;20473;-79
2023/06/01 00:15:03;;;;;;;3.90;3.60;;;14.50;97.20;;;;;;5036238;28;20470;-79
2023/06/01 00:17:30;;;;;;;4.83;3.43;;;14.60;97.30;;;;;;5039767;28;20457;-80
2023/06/01 00:20:00;;;;;;;4.20;3.90;;;14.60;97.10;;;;;;5041299;28;20445;-79
2023/06/01 00:22:28;;;;;;;3.30;2.97;;;14.60;97.10;;;;;;5044904;28;20511;-80
2023/06/01 00:24:57;;;;;;;4.47;4.07;;;14.50;97.10;;;;;;5042432;28;20515;-79
2023/06/01 00:27:23;;;;;;;4.87;4.37;;;14.50;97.10;;;;;;5041256;28;20549;-79
2023/06/01 00:29:50;;;;;;;3.30;3.00;;;14.40;97.40;;;;;;5046215;28;21131;-80
2023/06/01 00:32:17;;;;;;;5.30;4.37;;;14.40;97.40;;;;;;5042168;28;20450;-79
2023/06/01 00:34:44;;;;;;;3.13;2.90;;;14.40;97.80;;;;;;5040613;28;20492;-79
2023/06/01 00:37:11;;;;;;;4.53;3.07;;;14.30;97.80;;;;;;5035394;28;21210;-80
2023/06/01 00:39:38;;;;;;;5.27;3.87;;;14.30;98.00;;;;;;5034470;28;20534;-80
2023/06/01 00:42:07;;;;;;;5.10;4.33;;;14.20;98.50;;;;;;5041603;28;20485;-80
2023/06/01 00:44:34;;;;;;;4.30;3.70;;;14.10;98.40;;;;;;5042003;28;20488;-80
2023/06/01 00:47:02;;;;;;;4.00;3.60;;;14.10;99.10;;;;;;5045680;28;20472;-80
2023/06/01 00:49:29;;;;;;;5.60;3.40;;;14.10;98.90;;;;;;5028389;28;20492;-80
2023/06/01 00:51:56;;;;;;;7.00;4.80;;;14.00;99.40;;;;;;5039672;28;20892;-80
2023/06/01 00:54:23;;;;;;;4.20;3.60;;;14.00;99.30;;;;;;5039501;28;20931;-80
2023/06/01 00:56:50;;;;;;;5.93;3.27;;;13.90;99.50;;;;;;5043995;28;20480;-80
2023/06/01 00:59:18;;;;;;;7.57;4.20;;;13.90;99.50;;;;;;5043711;28;20590;-79
2023/06/01 01:01:45;;;;;;;7.23;3.00;;;13.90;99.50;;;;;;5044596;28;20594;-80
2023/06/01 01:04:14;;;;;;;5.10;3.80;;;13.90;99.50;;;;;;5042304;28;20575;-80
2023/06/01 01:07:03;;;;;;;5.30;4.77;;;13.90;99.60;;;;;;5042196;28;20453;-80
2023/06/01 01:09:36;;;;;;;3.80;3.20;;;13.90;99.50;;;;;;5038580;28;20474;-80
2023/06/01 01:12:13;;;;;;;4.13;3.73;;;13.90;99.50;;;;;;5038932;28;20550;-80
2023/06/01 01:14:50;;;;;;;3.90;3.60;;;13.90;99.60;;;;;;5040344;28;20534;-80
2023/06/01 01:17:24;;;;;;;5.03;3.97;;;13.90;99.60;;;;;;5033981;28;20556;-80
2023/06/01 01:19:58;;;;;;;5.73;4.27;;;13.90;99.80;;;;;;5041587;28;20440;-80
2023/06/01 01:23:04;;;;;;;7.30;4.40;;;13.80;99.90;;;;;;5035544;28;20575;-80
2023/06/01 01:26:00;;;;;;;6.20;3.50;;;13.90;99.90;;;;;;5032689;28;20441;-80
2023/06/01 01:28:43;;;;;;;7.20;3.60;;;13.70;99.90;;;;;;5031201;28;20896;-80
2023/06/01 01:31:14;;;;;;;3.40;3.10;;;13.70;99.90;;;;;;5039308;28;20508;-80
2023/06/01 01:33:42;;;;;;;4.80;3.30;;;13.60;99.90;;;;;;5042107;28;20464;-80
2023/06/01 01:36:11;;;;;;;3.30;3.07;;;13.70;99.90;;;;;;5043553;28;20473;-80
2023/06/01 01:38:38;;;;;;;7.40;3.60;;;13.80;99.90;;;;;;5034070;28;20445;-80
2023/06/01 01:41:05;;;;;;;4.60;3.67;;;13.80;99.90;;;;;;5042036;28;20469;-80
2023/06/01 01:43:32;;;;;;;4.00;3.60;;;13.70;99.90;;;;;;5036412;28;20482;-80
2023/06/01 01:46:10;;;;;;;4.73;3.67;;;13.60;99.90;;;;;;5030611;28;20496;-80
2023/06/01 01:48:42;;;;;;;6.93;3.63;;;13.60;99.90;;;;;;5038269;28;20489;-80
2023/06/01 01:51:16;;;;;;;9.00;3.80;;;13.60;99.90;;;;;;5037829;28;20936;-80
2023/06/01 01:53:45;;;;;;;3.83;3.30;;;13.70;99.90;;;;;;5031915;28;20543;-80
2023/06/01 01:56:14;;;;;;;4.10;3.47;;;13.60;99.90;;;;;;5043942;28;20553;-81
2023/06/01 01:58:43;;;;;;;4.20;3.80;;;13.70;99.90;;;;;;5042228;28;20465;-81
2023/06/01 02:01:13;;;;;;;5.80;3.97;;;13.60;99.90;;;;;;5038759;28;20492;-80
2023/06/01 02:03:40;;;;;;;4.60;3.80;;;13.50;99.90;;;;;;5037362;28;20513;-81
2023/06/01 02:06:07;;;;;;;4.73;4.17;;;13.50;99.90;;;;;;5041189;28;20552;-81
2023/06/01 02:08:34;;;;;;;5.33;3.80;;;13.40;99.90;;;;;;5037639;28;20485;-80
2023/06/01 02:11:01;;;;;;;4.33;3.60;;;13.30;99.90;;;;;;5037247;28;20466;-80
2023/06/01 02:13:28;;;;;;;7.00;3.90;;;13.40;99.90;;;;;;5039401;28;21102;-80
2023/06/01 02:15:54;;;;;;;3.90;3.50;;;13.40;99.90;;;;;;5039367;28;20464;-80
2023/06/01 02:18:25;;;;;;;3.67;3.37;;;13.40;99.90;;;;;;5045469;28;20508;-79
2023/06/01 02:20:52;;;;;;;3.80;2.80;;;13.40;99.90;;;;;;5045434;28;20472;-79
2023/06/01 02:23:19;;;;;;;3.77;3.07;;;13.40;99.90;;;;;;5048030;28;21047;-80
2023/06/01 02:25:46;;;;;;;5.93;4.10;;;13.40;99.90;;;;;;5047182;28;20444;-79
2023/06/01 02:28:13;;;;;;;7.47;4.10;;;13.40;99.90;;;;;;5046841;28;20465;-78
2023/06/01 02:30:40;;;;;;;5.63;3.53;;;13.40;99.90;;;;;;5047507;28;20445;-79
2023/06/01 02:33:06;;;;;;;4.20;3.63;;;13.40;99.90;;;;;;5044524;28;21076;-79
2023/06/01 02:35:35;;;;;;;4.17;3.40;;;13.30;99.90;;;;;;5037683;28;20453;-79
2023/06/01 02:38:02;;;;;;;3.83;3.40;;;13.30;99.90;;;;;;5044386;28;20466;-79
2023/06/01 02:40:29;;;;;;;4.87;3.70;;;13.30;99.90;;;;;;5044088;28;20502;-79
2023/06/01 02:42:56;;;;;;;3.20;2.93;;;13.30;99.90;;;;;;5045201;28;20481;-79
2023/06/01 02:45:23;;;;;;;4.23;3.40;;;13.30;99.90;;;;;;5040902;28;20516;-79
2023/06/01 02:47:50;;;;;;;8.43;4.70;;;13.30;99.90;;;;;;5038144;28;20514;-79
2023/06/01 02:50:17;;;;;;;4.07;3.67;;;13.20;99.90;;;;;;5043898;28;20473;-79
2023/06/01 02:52:46;;;;;;;5.73;5.30;;;13.20;99.90;;;;;;5040464;28;20461;-79
2023/06/01 02:55:12;;;;;;;5.93;3.90;;;13.20;99.90;;;;;;5039980;28;20511;-79
2023/06/01 02:57:39;;;;;;;5.97;4.40;;;13.10;99.90;;;;;;5037960;28;20503;-79
2023/06/01 03:00:15;;;;;;;7.40;4.37;;;13.10;99.90;;;;;;5044255;28;20523;-79
2023/06/01 03:02:42;;;;;;;5.83;5.17;;;13.10;99.90;;;;;;5036087;28;21050;-79
2023/06/01 03:05:11;;;;;;;3.83;3.53;;;13.10;99.90;;;;;;5036703;28;20458;-79
2023/06/01 03:07:39;;;;;;;4.63;4.23;;;13.10;99.90;;;;;;5032410;28;20470;-79
2023/06/01 03:10:09;;;;;;;6.10;4.77;;;13.00;99.90;;;;;;5041441;28;20470;-80
2023/06/01 03:12:36;;;;;;;6.60;4.33;;;13.00;99.90;;;;;;5043206;28;20446;-79
2023/06/01 03:15:04;;;;;;;4.10;3.77;;;12.90;99.90;;;;;;5040671;28;20469;-80
2023/06/01 03:17:31;;;;;;;6.00;4.00;;;13.00;99.90;;;;;;5044116;28;20455;-80
2023/06/01 03:19:58;;;;;;;8.07;4.73;;;13.10;99.90;;;;;;5036814;28;20461;-80
2023/06/01 03:22:25;;;;;;;8.80;4.60;;;13.00;99.90;;;;;;5041590;28;20517;-79
2023/06/01 03:24:54;;;;;;;4.73;4.33;;;13.20;99.90;;;;;;5039869;28;20515;-79
2023/06/01 03:27:22;;;;;;;7.97;4.30;;;13.20;99.90;;;;;;5045461;28;21276;-79
2023/06/01 03:29:49;;;;;;;8.00;5.23;;;13.10;99.90;;;;;;5045680;28;20465;-80
2023/06/01 03:32:16;;;;;;;5.60;5.10;;;13.10;99.90;;;;;;5044124;28;20465;-79
2023/06/01 03:34:43;;;;;;;5.97;5.40;;;13.00;99.90;;;;;;5040300;28;20952;-79
2023/06/01 03:37:10;;;;;;;5.67;5.20;;;12.90;99.90;;;;;;5044542;28;20438;-79
2023/06/01 03:39:39;;;;;;;5.37;4.90;;;12.70;99.90;;;;;;5037242;28;20528;-79
2023/06/01 03:42:06;;;;;;;5.00;4.60;;;12.70;99.90;;;;;;5043431;28;21364;-79
2023/06/01 03:44:35;;;;;;;6.77;6.17;;;12.60;99.90;;;;;;5043502;28;20987;-79
2023/06/01 03:47:02;;;;;;;5.67;5.13;;;12.60;99.90;;;;;;5045930;28;20534;-79
2023/06/01 03:49:29;;;;;;;7.33;5.70;;;12.50;99.90;;;;;;5046015;28;20445;-79
2023/06/01 03:51:56;;;;;;;5.90;5.40;;;12.50;99.90;;;;;;5040016;28;20489;-81
2023/06/01 03:54:23;;;;;;;7.10;6.40;;;12.50;99.90;;;;;;5034700;28;20438;-79
2023/06/01 03:56:50;;;;;;;6.60;6.00;;;12.70;99.90;;;;;;5045848;28;20493;-79
2023/06/01 03:59:17;;;;;;;6.70;5.90;;;12.80;99.90;;;;;;5035029;28;21357;-79
2023/06/01 04:01:48;;;;;;;6.63;5.13;;;12.80;99.90;;;;;;5038345;28;20446;-80
2023/06/01 04:04:16;;;;;;;5.40;4.90;;;12.90;99.90;;;;;;5036595;28;20494;-80
2023/06/01 04:06:45;;;;;;;6.50;5.90;;;12.90;99.90;;;;;;5043782;28;20457;-80
2023/06/01 04:09:12;;;;;;;7.03;5.50;;;13.00;99.90;;;;;;5040739;28;20438;-80
2023/06/01 04:11:40;;;;;;;6.60;4.93;;;13.00;99.90;;;;;;5036682;28;20479;-81
2023/06/01 04:14:07;;;;;;;6.23;5.37;;;13.20;99.90;;;;;;5041936;28;21015;-80
2023/06/01 04:16:34;;;;;;;7.00;6.10;;;13.20;99.90;;;;;;5043676;28;20515;-80
2023/06/01 04:19:02;;;;;;;7.30;6.57;;;13.50;99.90;;;;;;5041898;28;20544;-80
2023/06/01 04:21:30;;;;;;;8.77;6.50;;;13.60;99.90;;;;;;5042078;28;20493;-80
2023/06/01 04:23:56;;;;;;;10.40;7.20;;;13.80;99.90;;;;;;5039682;28;20477;-80
2023/06/01 04:26:24;;;;;;;6.80;6.30;;;13.90;99.90;;;;;;5041464;28;20500;-80
2023/06/01 04:28:51;;;;;;;5.63;5.13;;;14.00;99.90;;;;;;5048899;28;20456;-80
2023/06/01 04:31:19;;;;;;;6.30;5.70;;;14.10;99.90;;;;;;5036766;28;20493;-80
2023/06/01 04:33:52;;;;;;;6.47;5.40;;;14.30;99.90;;;;;;5041798;28;20476;-80
2023/06/01 04:36:22;;;;;;;7.50;5.73;;;14.40;99.90;;;;;;5047988;28;20462;-80
2023/06/01 04:38:52;;;;;;;6.67;5.90;;;14.50;99.90;;;;;;5044321;28;20548;-80
2023/06/01 04:41:21;;;;;;;6.23;5.67;;;14.40;99.90;;;;;;5039478;28;20458;-80
2023/06/01 04:43:51;;;;;;;8.53;6.43;;;14.40;99.90;;;;;;5041649;28;20481;-80
2023/06/01 04:46:19;;;;;;;5.87;5.20;;;14.50;99.90;;;;;;5042566;28;20480;-80
2023/06/01 04:48:46;;;;;;;7.27;5.60;;;14.50;99.90;;;;;;5048186;28;21365;-80
2023/06/01 04:51:17;;;;;;;4.97;4.57;;;14.60;99.90;;;;;;5039249;28;20450;-80
2023/06/01 04:53:49;;;;;;;7.47;6.00;;;14.60;99.90;;;;;;5039807;28;20456;-79
2023/06/01 04:56:17;;;;;;;5.67;5.13;;;14.50;99.90;;;;;;5041335;28;20442;-79
2023/06/01 04:58:44;;;;;;;8.00;6.17;;;14.50;99.90;;;;;;5034490;28;20485;-79
2023/06/01 05:01:13;;;;;;;7.93;5.77;;;14.70;99.90;;;;;;5043041;28;20457;-79
2023/06/01 05:03:40;;;;;;;5.40;5.00;;;14.80;99.90;;;;;;5048117;28;20477;-79
2023/06/01 05:06:07;;;;;;;6.00;5.40;;;14.80;99.90;;;;;;5035331;28;20493;-79
2023/06/01 05:08:35;;;;;;;6.50;5.77;;;14.80;99.90;;;;;;5043114;28;20485;-79
2023/06/01 05:11:04;;;;;;;4.90;4.50;;;14.70;99.90;;;;;;5036877;28;20529;-79
2023/06/01 05:13:31;;;;;;;5.53;5.10;;;14.90;99.90;;;;;;5042101;28;20935;-79
2023/06/01 05:15:58;;;;;;;9.80;6.20;;;15.00;99.90;;;;;;5039473;28;20499;-79
2023/06/01 05:18:24;;;;;;;6.97;6.27;;;15.20;99.90;;;;;;5048854;28;20541;-79
2023/06/01 05:20:51;;;;;;;8.10;6.87;;;15.30;99.90;;;;;;5043811;28;20540;-79
2023/06/01 05:23:18;;;;;;;7.13;6.43;;;15.40;99.90;;;;;;5035901;28;20517;-79
2023/06/01 05:25:45;;;;;;;7.30;5.73;;;15.70;99.90;;;;;;5040791;28;20856;-79
2023/06/01 05:28:14;;;;;;;10.90;6.30;;;15.90;99.90;;;;;;5042547;28;20500;-80
2023/06/01 05:30:41;;;;;;;7.33;5.80;;;16.00;99.90;;;;;;5045335;28;20513;-80
2023/06/01 05:33:08;;;;;;;7.30;6.57;;;16.10;99.90;;;;;;5039331;28;20476;-80
2023/06/01 05:35:35;;;;;;;6.83;6.13;;;16.10;99.90;;;;;;5039585;28;20485;-80
2023/06/01 05:38:03;;;;;;;7.73;6.03;;;16.00;99.90;;;;;;5040110;28;20539;-80
2023/06/01 05:40:30;;;;;;;7.70;6.40;;;16.20;99.90;;;;;;5047719;28;20468;-79
2023/06/01 05:42:56;;;;;;;6.27;5.70;;;16.40;99.90;;;;;;5047213;28;20456;-80
2023/06/01 05:45:25;;;;;;;7.27;6.33;;;16.50;99.90;;;;;;5051417;28;20520;-79
2023/06/01 05:47:52;;;;;;;7.30;6.13;;;16.60;99.90;;;;;;5049911;28;20489;-79
2023/06/01 05:50:19;;;;;;;7.90;5.90;;;16.60;99.90;;;;;;5039437;28;20539;-79
2023/06/01 05:52:46;;;;;;;6.80;5.50;;;16.90;99.90;;;;;;5041451;28;20496;-80
2023/06/01 05:55:13;;;;;;;9.23;6.27;;;17.10;99.90;;;;;;5043146;28;20511;-80
2023/06/01 05:57:40;;;;;;;6.20;5.70;;;17.10;99.90;;;;;;5040771;28;20535;-79
2023/06/01 06:00:10;;;;;;;6.80;5.50;;;16.90;99.90;;;;;;5047357;28;20489;-79
2023/06/01 06:02:38;;;;;;;9.50;7.10;;;17.00;99.90;;;;;;5045221;28;20521;-79
2023/06/01 06:05:06;;;;;;;6.13;4.27;;;17.00;99.90;;;;;;5051630;28;20508;-80
2023/06/01 06:07:33;;;;;;;6.43;5.70;;;17.30;99.90;;;;;;5048084;28;20550;-79
2023/06/01 06:10:00;;;;;;;7.53;5.33;;;17.40;99.90;;;;;;5044423;28;20464;-79
2023/06/01 06:12:27;;;;;;;8.90;6.40;;;17.40;99.90;;;;;;5042242;28;20498;-79
2023/06/01 06:14:54;;;;;;;8.03;5.57;;;17.70;99.90;;;;;;5045175;28;20502;-79
2023/06/01 06:17:22;;;;;;;4.97;4.50;;;18.00;99.90;;;;;;5044975;28;20462;-79
2023/06/01 06:19:51;;;;;;;6.30;5.57;;;18.00;99.20;;;;;;5043991;28;20494;-79
2023/06/01 06:22:18;;;;;;;5.67;5.17;;;18.10;99.10;;;;;;5039563;28;20493;-79
2023/06/01 06:24:45;;;;;;;4.83;4.40;;;18.30;99.80;;;;;;5039421;28;21029;-79
2023/06/01 06:27:12;;;;;;;6.77;5.83;;;18.30;99.70;;;;;;5046857;28;20474;-79
2023/06/01 06:29:39;;;;;;;6.73;4.90;;;18.50;98.80;;;;;;5038022;28;20838;-79
2023/06/01 06:32:07;;;;;;;8.03;5.20;;;18.50;99.20;;;;;;5047168;28;20456;-79
2023/06/01 06:34:35;;;;;;;6.87;5.27;;;18.80;98.40;;;;;;5044939;28;21190;-80
2023/06/01 06:37:05;;;;;;;6.20;5.60;;;18.90;97.50;;;;;;5042899;28;20441;-79
2023/06/01 06:39:32;;;;;;;5.33;4.93;;;19.20;96.20;;;;;;5040866;28;21165;-79
2023/06/01 06:41:59;;;;;;;7.20;4.37;;;19.20;95.90;;;;;;5041458;28;20495;-79
2023/06/01 06:44:26;;;;;;;4.50;4.10;;;19.50;96.40;;;;;;5047486;28;20492;-79
2023/06/01 06:46:53;;;;;;;5.47;4.03;;;19.80;95.30;;;;;;5041715;28;20484;-79
2023/06/01 06:49:20;;;;;;;5.97;4.87;;;19.90;94.30;;;;;;5037736;28;20543;-80
2023/06/01 06:51:46;;;;;;;5.73;3.90;;;20.10;94.00;;;;;;5031211;28;20769;-79
2023/06/01 06:54:15;;;;;;;3.83;3.53;;;20.00;93.50;;;;;;5040946;28;20955;-79
2023/06/01 06:56:42;;;;;;;4.37;3.47;;;20.20;90.10;;;;;;5037420;28;20531;-79
2023/06/01 06:59:09;;;;;;;12.90;3.10;;;20.40;90.60;;;;;;5043614;28;21054;-79
2023/06/01 07:01:37;;;;;;;3.63;3.20;;;20.40;92.40;;;;;;5042965;28;20438;-79
2023/06/01 07:04:05;;;;;;;5.47;3.60;;;20.60;91.40;;;;;;5040646;28;20598;-79
2023/06/01 07:06:33;;;;;;;4.17;3.10;;;20.70;90.70;;;;;;5039090;28;20452;-79
2023/06/01 07:09:00;;;;;;;3.87;2.47;;;20.60;89.20;;;;;;5041355;28;20971;-79
2023/06/01 07:11:29;;;;;;;3.20;2.90;;;20.50;90.90;;;;;;5039406;28;20469;-79
2023/06/01 07:13:57;;;;;;;3.10;2.07;;;20.60;90.40;;;;;;5036327;28;20464;-79
2023/06/01 07:16:25;;;;;;;4.33;2.57;;;20.90;86.30;;;;;;5037518;28;21072;-79
2023/06/01 07:18:52;;;;;;;3.17;2.00;;;20.90;85.10;;;;;;5040322;28;20434;-79
2023/06/01 07:21:19;;;;;;;3.40;2.67;;;21.00;84.20;;;;;;5039961;28;20445;-79
2023/06/01 07:23:47;;;;;;;2.43;2.23;;;21.10;85.60;;;;;;5043091;28;20490;-79
2023/06/01 07:26:14;;;;;;;7.20;2.43;;;20.80;82.20;;;;;;5042391;28;20587;-79
2023/06/01 07:28:42;;;;;;;2.07;1.87;;;20.90;86.50;;;;;;5044682;28;20828;-79
2023/06/01 07:31:09;;;;;;;2.67;2.47;;;21.50;83.00;;;;;;5038463;28;20444;-79
2023/06/01 07:33:37;;;;;;;2.60;1.77;;;21.60;80.20;;;;;;5045752;28;21253;-80
2023/06/01 07:36:04;;;;;;;1.80;1.70;;;21.80;77.40;;;;;;5035574;28;20494;-79
2023/06/01 07:38:32;;;;;;;1.90;1.70;;;21.80;74.80;;;;;;5034903;28;20838;-79
2023/06/01 07:41:00;;;;;;;2.10;1.60;;;21.80;79.80;;;;;;5035634;28;20446;-79
2023/06/01 07:43:26;;;;;;;1.83;1.50;;;21.80;76.40;;;;;;5037291;28;20535;-79
2023/06/01 07:45:57;;;;;;;3.07;1.97;;;21.90;74.00;;;;;;5036506;28;20504;-79
2023/06/01 07:48:24;;;;;;;2.97;1.47;;;21.80;75.90;;;;;;5038049;28;20442;-79
2023/06/01 07:50:51;;;;;;;7.30;2.40;;;22.10;74.00;;;;;;5035362;28;20492;-79
2023/06/01 07:53:19;;;;;;;3.40;1.23;;;22.20;74.60;;;;;;5044080;28;20446;-79
2023/06/01 07:55:48;;;;;;;1.73;1.53;;;22.30;71.80;;;;;;5030184;28;20459;-78
2023/06/01 07:58:15;;;;;;;2.13;1.67;;;22.20;71.90;;;;;;5035137;28;20450;-79
2023/06/01 08:00:42;;;;;;;3.27;1.33;;;22.30;69.40;;;;;;5035955;28;20462;-82
2023/06/01 08:03:11;;;;;;;2.70;1.63;;;22.30;67.20;;;;;;5041398;28;20477;-82
2023/06/01 08:05:38;;;;;;;1.30;1.20;;;22.20;65.30;;;;;;5034300;28;20509;-76
2023/06/01 08:08:05;;;;;;;3.07;1.30;;;22.50;69.00;;;;;;5036387;28;20468;-78
2023/06/01 08:10:32;;;;;;;4.07;1.23;;;22.30;65.40;;;;;;5027203;28;20524;-79
2023/06/01 08:12:59;;;;;;;2.60;1.40;;;22.10;64.00;;;;;;5040161;28;20993;-80
2023/06/01 08:15:28;;;;;;;4.97;1.87;;;22.30;63.60;;;;;;5031881;28;20458;-77
2023/06/01 08:17:55;;;;;;;2.67;1.10;;;22.40;64.00;;;;;;5037464;28;20942;-76
2023/06/01 08:20:25;;;;;;;5.57;1.23;;;22.70;67.50;;;;;;5032972;28;20454;-80
2023/06/01 08:22:52;;;;;;;2.77;1.53;;;22.80;67.50;;;;;;5037358;28;20528;-81
2023/06/01 08:25:20;;;;;;;8.23;1.80;;;22.60;61.80;;;;;;5035706;28;20512;-81
2023/06/01 08:27:47;;;;;;;1.23;1.03;;;22.70;65.00;;;;;;5041307;28;20462;-80
2023/06/01 08:30:14;;;;;;;1.40;1.30;;;23.00;66.30;;;;;;5034053;28;20477;-80
2023/06/01 08:32:41;;;;;;;3.70;1.70;;;23.00;61.10;;;;;;5041242;28;20473;-80
2023/06/01 08:35:09;;;;;;;2.30;1.63;;;23.40;60.10;;;;;;5038247;28;20450;-77
2023/06/01 08:37:37;;;;;;;2.10;1.47;;;23.30;59.70;;;;;;5033530;28;20991;-77
2023/06/01 08:40:08;;;;;;;5.10;1.73;;;23.30;60.70;;;;;;5026789;28;20494;-78
2023/06/01 08:42:45;;;;;;;1.53;1.27;;;23.40;59.20;;;;;;5039241;28;20452;-76
2023/06/01 08:45:13;;;;;;;1.80;1.30;;;23.50;59.00;;;;;;5038018;28;20496;-80
2023/06/01 08:47:41;;;;;;;5.50;1.77;;;23.60;62.80;;;;;;5040473;28;20466;-74
2023/06/01 08:50:10;;;;;;;1.80;1.60;;;23.30;62.00;;;;;;5032688;28;20956;-78
2023/06/01 08:52:42;;;;;;;2.03;1.60;;;23.30;58.50;;;;;;5031857;28;20457;-79
2023/06/01 08:55:09;;;;;;;1.80;1.37;;;23.40;61.60;;;;;;5041631;28;20546;-76
2023/06/01 08:57:36;;;;;;;2.20;1.60;;;23.60;60.60;;;;;;5046573;28;20482;-77
2023/06/01 09:00:04;;;;;;;6.03;2.00;;;23.70;57.70;;;;;;5045758;28;20493;-74
2023/06/01 09:02:31;;;;;;;4.30;1.30;;;23.60;60.80;;;;;;5046263;28;20455;-74
2023/06/01 09:04:59;;;;;;;2.40;1.73;;;23.90;58.70;;;;;;5046065;28;20563;-74
2023/06/01 09:07:26;;;;;;;1.87;1.20;;;23.90;58.50;;;;;;5046480;28;20454;-74
2023/06/01 09:09:54;;;;;;;5.03;1.90;;;23.70;63.20;;;;;;5042362;28;20478;-76
2023/06/01 09:12:25;;;;;;;5.53;2.63;;;23.50;59.30;;;;;;5046033;28;20780;-77
2023/06/01 09:15:07;;;;;;;2.10;1.90;;;23.60;60.90;;;;;;5044775;28;20446;-76
2023/06/01 09:17:34;;;;;;;1.83;1.73;;;23.60;59.40;;;;;;5045880;28;20471;-76
2023/06/01 09:20:02;;;;;;;1.60;1.50;;;23.70;67.90;;;;;;5044553;28;20444;-77
2023/06/01 09:22:40;;;;;;;3.70;1.60;;;23.30;57.50;;;;;;5046126;28;20472;-76
2023/06/01 09:25:10;;;;;;;2.40;2.10;;;23.60;59.20;;;;;;5046695;28;20551;-76
2023/06/01 09:27:45;;;;;;;2.83;2.63;;;24.00;61.10;;;;;;5040086;28;20506;-76
2023/06/01 09:30:13;;;;;;;2.10;2.00;;;24.10;58.00;;;;;;5044934;28;20441;-76
2023/06/01 09:32:40;;;;;;;2.10;1.70;;;24.20;56.60;;;;;;5045924;28;20458;-77
2023/06/01 09:35:07;;;;;;;3.20;2.10;;;24.00;59.50;;;;;;5046101;28;20922;-77
2023/06/01 09:37:35;;;;;;;5.43;2.40;;;24.10;61.10;;;;;;5045991;28;20512;-76
2023/06/01 09:40:04;;;;;;;3.73;2.93;;;24.40;58.60;;;;;;5046119;28;21147;-74
2023/06/01 09:42:35;;;;;;;4.47;2.93;;;24.80;58.30;;;;;;5042448;28;20491;-76
2023/06/01 09:45:17;;;;;;;4.60;2.37;;;25.00;57.40;;;;;;5045398;28;20528;-76
2023/06/01 09:47:43;;;;;;;4.27;2.83;;;25.20;57.10;;;;;;5046218;28;20514;-76
2023/06/01 09:50:11;;;;;;;3.27;2.60;;;25.30;58.30;;;;;;5037897;28;20853;-77
2023/06/01 09:52:38;;;;;;;2.93;2.40;;;25.40;53.20;;;;;;5037817;28;20771;-77
2023/06/01 09:55:10;;;;;;;5.17;3.77;;;25.70;55.10;;;;;;5032931;28;20496;-76
2023/06/01 09:57:38;;;;;;;4.10;3.20;;;25.80;53.60;;;;;;5044497;28;20956;-77
2023/06/01 10:00:06;;;;;;;2.60;2.37;;;26.00;51.80;;;;;;5040919;28;20500;-76
2023/06/01 10:02:34;;;;;;;2.60;2.40;;;26.00;53.30;;;;;;5045840;28;20849;-77
2023/06/01 10:05:01;;;;;;;3.83;2.43;;;26.00;54.90;;;;;;5042351;28;20970;-77
2023/06/01 10:07:30;;;;;;;2.73;2.53;;;25.90;52.20;;;;;;5039525;28;21231;-76
2023/06/01 10:09:58;;;;;;;5.60;2.13;;;25.80;53.30;;;;;;5033107;28;20506;-76
2023/06/01 10:12:27;;;;;;;4.70;2.00;;;25.90;50.80;;;;;;5035346;28;20461;-76
2023/06/01 10:14:57;;;;;;;3.47;3.17;;;25.70;51.40;;;;;;5042427;28;20467;-76
2023/06/01 10:17:24;;;;;;;3.47;3.17;;;25.70;54.00;;;;;;5042264;28;20510;-76
2023/06/01 10:19:52;;;;;;;3.13;2.90;;;25.80;53.30;;;;;;5045661;28;20488;-77
2023/06/01 10:22:20;;;;;;;4.10;3.23;;;25.60;49.40;;;;;;5040537;28;20549;-76
2023/06/01 10:24:47;;;;;;;2.27;2.07;;;25.70;54.30;;;;;;5044718;28;20499;-76
2023/06/01 10:27:20;;;;;;;3.13;2.80;;;25.70;48.40;;;;;;5046951;28;20963;-77
2023/06/01 10:29:48;;;;;;;3.90;3.07;;;25.30;53.20;;;;;;5046257;28;20502;-76
2023/06/01 10:32:45;;;;;;;8.73;3.60;;;25.50;50.70;;;;;;5048856;28;20577;-77
2023/06/01 10:36:03;;;;;;;4.00;3.70;;;25.60;56.00;;;;;;5047304;28;20539;-77
2023/06/01 10:38:30;;;;;;;4.50;3.10;;;25.70;52.10;;;;;;5030815;28;20452;-75
2023/06/01 10:41:26;;;;;;;4.77;2.70;;;25.30;53.50;;;;;;5034582;28;20439;-74
2023/06/01 10:43:53;;;;;;;3.50;3.20;;;25.40;50.40;;;;;;5032990;28;20451;-76
2023/06/01 10:46:41;;;;;;;2.90;2.70;;;25.20;48.70;;;;;;5033080;28;21067;-76
2023/06/01 10:49:10;;;;;;;4.00;3.50;;;25.60;54.50;;;;;;5035120;28;20531;-76
2023/06/01 10:51:37;;;;;;;5.60;2.37;;;25.10;50.10;;;;;;5042347;28;20464;-76
2023/06/01 10:54:31;;;;;;;4.30;2.57;;;25.70;53.00;;;;;;5040621;28;20451;-77
2023/06/01 10:57:21;;;;;;;4.40;4.00;;;26.30;52.30;;;;;;5029127;28;20440;-76
2023/06/01 11:00:12;;;;;;;5.77;3.37;;;26.50;49.00;;;;;;5041755;28;20461;-77
2023/06/01 11:02:54;;;;;;;3.53;2.77;;;26.50;52.30;;;;;;5041561;28;20524;-77
2023/06/01 11:05:47;;;;;;;3.03;2.83;;;26.00;48.50;;;;;;5035523;28;20481;-78
2023/06/01 11:08:52;;;;;;;3.80;3.00;;;25.90;49.20;;;;;;5039885;28;20960;-77
2023/06/01 11:11:22;;;;;;;2.77;2.40;;;25.70;48.30;;;;;;5035912;28;20460;-76
2023/06/01 11:14:10;;;;;;;3.90;3.50;;;25.80;52.40;;;;;;5032566;28;20449;-77
2023/06/01 11:16:37;;;;;;;5.47;2.87;;;25.90;51.60;;;;;;5037555;28;20472;-77
2023/06/01 11:19:06;;;;;;;3.70;3.40;;;26.10;48.70;;;;;;5040004;28;20449;-77
2023/06/01 11:21:40;;;;;;;2.67;2.47;;;26.30;53.80;;;;;;5032604;28;20478;-77
2023/06/01 11:24:11;;;;;;;3.63;3.23;;;26.50;50.60;;;;;;5028223;28;20449;-77
2023/06/01 11:26:41;;;;;;;6.97;3.13;;;26.50;46.90;;;;;;5039883;28;20481;-77
2023/06/01 11:29:18;;;;;;;5.20;4.53;;;26.60;50.70;;;;;;5034163;28;20565;-77
2023/06/01 11:31:47;;;;;;;4.40;3.30;;;26.30;48.20;;;;;;5034141;28;20519;-76
2023/06/01 11:34:18;;;;;;;4.40;2.97;;;26.10;48.50;;;;;;5039127;28;20451;-76
2023/06/01 11:36:48;;;;;;;4.47;3.27;;;26.10;46.00;;;;;;5030115;28;20492;-77
2023/06/01 11:39:23;;;;;;;3.17;2.87;;;26.20;51.50;;;;;;5027552;28;20466;-76
2023/06/01 11:42:05;;;;;;;5.33;3.30;;;26.00;45.10;;;;;;5041100;28;20456;-76
2023/06/01 11:44:32;;;;;;;3.40;3.10;;;26.10;46.70;;;;;;5033087;28;20831;-78
2023/06/01 11:47:00;;;;;;;2.90;2.70;;;26.00;44.80;;;;;;5033643;28;20459;-77
2023/06/01 11:49:27;;;;;;;6.00;4.33;;;26.20;43.40;;;;;;5038334;28;20540;-76
2023/06/01 11:51:57;;;;;;;3.00;2.80;;;25.90;43.90;;;;;;5039823;28;20516;-77
2023/06/01 11:54:28;;;;;;;4.00;2.93;;;26.10;43.80;;;;;;5036961;28;20441;-76
2023/06/01 11:56:56;;;;;;;3.70;3.40;;;26.10;44.00;;;;;;5039169;28;20464;-77
2023/06/01 11:59:24;;;;;;;3.70;3.27;;;26.10;45.70;;;;;;5044326;28;20995;-76
2023/06/01 12:01:53;;;;;;;4.10;3.10;;;26.10;45.40;;;;;;5043276;28;20493;-77
2023/06/01 12:04:23;;;;;;;2.70;2.60;;;26.60;45.30;;;;;;5040111;28;20455;-77
2023/06/01 12:06:51;;;;;;;3.47;3.27;;;27.00;45.60;;;;;;5044594;28;21017;-76
2023/06/01 12:09:20;;;;;;;4.47;2.90;;;26.70;43.50;;;;;;5045158;28;20495;-77
2023/06/01 12:11:47;;;;;;;3.40;3.17;;;26.20;45.60;;;;;;5046099;28;20496;-76
2023/06/01 12:14:16;;;;;;;3.37;3.03;;;26.30;44.90;;;;;;5046550;28;20990;-76
2023/06/01 12:16:58;;;;;;;3.23;2.93;;;26.30;44.70;;;;;;5046690;28;20528;-76
2023/06/01 12:19:25;;;;;;;5.30;3.03;;;26.30;45.80;;;;;;5045805;28;20527;-77
2023/06/01 12:21:55;;;;;;;3.37;3.07;;;26.50;43.90;;;;;;5046881;28;20540;-77
2023/06/01 12:24:32;;;;;;;3.77;3.17;;;26.50;41.30;;;;;;5046914;28;20456;-78
2023/06/01 12:27:00;;;;;;;4.93;3.33;;;26.80;41.90;;;;;;5037016;28;20484;-77
2023/06/01 12:29:38;;;;;;;3.63;3.33;;;26.80;41.90;;;;;;5044755;28;20538;-77
2023/06/01 12:32:07;;;;;;;3.50;3.20;;;27.10;41.80;;;;;;5045352;28;20484;-77
2023/06/01 12:34:34;;;;;;;3.30;3.00;;;27.10;41.40;;;;;;5036735;28;21148;-77
2023/06/01 12:37:15;;;;;;;4.50;3.40;;;27.20;44.40;;;;;;5031048;28;20467;-77
2023/06/01 12:39:45;;;;;;;4.30;3.50;;;27.00;38.80;;;;;;5041563;28;20925;-76
2023/06/01 12:42:12;;;;;;;3.60;2.57;;;27.20;40.90;;;;;;5042829;28;20978;-77
2023/06/01 12:44:41;;;;;;;3.50;3.13;;;27.20;43.80;;;;;;5037341;28;21000;-77
2023/06/01 12:47:08;;;;;;;3.50;3.17;;;27.10;46.40;;;;;;5039482;28;20539;-77
2023/06/01 12:49:37;;;;;;;4.20;2.87;;;26.80;43.30;;;;;;5037328;28;20500;-77
2023/06/01 12:52:05;;;;;;;4.40;4.00;;;27.00;40.20;;;;;;5030639;28;20463;-77
2023/06/01 12:54:31;;;;;;;3.50;3.20;;;27.00;41.10;;;;;;5046524;28;20482;-82
2023/06/01 12:57:00;;;;;;;4.03;3.00;;;27.10;40.10;;;;;;5045430;28;20460;-79